Time;durP1;ratioP1;P1;durP2;ratioP2;P2;SDS_P1;SDS_P2;PMS_P1;PMS_P2;Temp;Humidity;BMP_temperature;BMP_pressure;BME280_temperature;BME280_humidity;BME280_pressure;Samples;Min_cycle;Max_cycle;Signal;HPM_P1;HPM_P2
2022/01/21 00:00:56;;;;;;;11.45;4.60;;;3.90;99.90;;;3.41;97.29;103352.88;4167739;28;20028;-67
2022/01/21 00:02:57;;;;;;;15.10;5.10;;;3.90;99.90;;;3.20;99.20;103351.75;4151491;28;20041;-67
2022/01/21 00:04:58;;;;;;;12.50;3.85;;;3.80;99.90;;;3.38;100.00;103360.78;4169056;28;20499;-67
2022/01/21 00:06:59;;;;;;;9.68;3.97;;;3.80;99.90;;;3.18;98.35;103351.81;4168971;28;20144;-67
2022/01/21 00:09:00;;;;;;;8.60;3.83;;;3.80;99.90;;;3.26;99.66;103351.59;4167951;28;20057;-67
2022/01/21 00:11:02;;;;;;;9.30;3.90;;;3.80;99.90;;;3.31;99.31;103358.41;4167803;28;20479;-67
2022/01/21 00:13:13;;;;;;;8.65;4.00;;;3.80;99.90;;;3.25;99.99;103349.91;4167683;28;20041;-67
2022/01/21 00:15:14;;;;;;;9.40;4.32;;;3.90;99.90;;;3.45;99.98;103363.19;4168899;28;20123;-67
2022/01/21 00:17:17;;;;;;;13.82;4.35;;;3.90;99.90;;;3.68;95.67;103349.41;4168534;28;20041;-67
2022/01/21 00:19:19;;;;;;;13.27;4.68;;;4.00;99.90;;;3.61;96.67;103350.53;4169021;28;20025;-67
2022/01/21 00:30:38;;;;;;;11.60;4.15;;;4.10;99.90;;;3.62;96.53;103347.88;4167504;28;20129;-67
2022/01/21 00:32:46;;;;;;;13.45;4.10;;;4.10;99.90;;;3.68;97.18;103346.81;4168720;28;20025;-67
2022/01/21 00:34:47;;;;;;;9.02;4.10;;;4.10;99.90;;;3.66;96.40;103348.63;4167637;28;20030;-67
2022/01/21 00:36:48;;;;;;;12.13;4.90;;;4.10;99.90;;;3.59;95.65;103344.50;4150863;28;20038;-67
2022/01/21 00:38:49;;;;;;;12.93;4.80;;;4.10;99.90;;;3.92;93.83;103353.88;4168699;28;20087;-67
2022/01/21 00:40:50;;;;;;;12.55;5.07;;;4.20;99.90;;;3.89;94.02;103353.97;4168635;28;20030;-67
2022/01/21 00:43:12;;;;;;;14.40;5.53;;;4.20;99.90;;;3.74;94.16;103346.63;4168606;28;20026;-67
2022/01/21 00:45:14;;;;;;;10.43;4.57;;;4.30;99.90;;;3.59;96.49;103349.72;4167577;28;20035;-67
2022/01/21 00:47:15;;;;;;;12.48;4.68;;;4.20;99.90;;;3.82;94.92;103342.84;4150450;28;20052;-67
2022/01/21 00:49:17;;;;;;;10.40;4.05;;;4.20;99.90;;;3.75;94.11;103345.72;4168576;28;20025;-67
2022/01/21 00:51:18;;;;;;;8.27;3.95;;;4.20;99.90;;;3.63;96.61;103340.91;4168385;28;20058;-67
2022/01/21 00:53:20;;;;;;;14.25;5.35;;;4.20;99.90;;;3.83;95.17;103356.78;4200160;28;20036;-67
2022/01/21 00:55:21;;;;;;;20.60;6.38;;;4.20;99.90;;;3.83;93.32;103351.56;4168300;28;20554;-67
2022/01/21 00:57:22;;;;;;;10.02;3.97;;;4.20;99.90;;;3.72;95.32;103351.91;4167130;28;20431;-67
2022/01/21 00:59:24;;;;;;;10.15;4.60;;;4.20;99.90;;;3.71;95.17;103339.75;4167091;28;20492;-67
2022/01/21 01:01:24;;;;;;;13.30;5.65;;;4.20;99.90;;;3.77;94.54;103339.56;4167963;28;20082;-67
2022/01/21 01:03:25;;;;;;;11.68;5.15;;;4.20;99.90;;;3.64;95.27;103342.63;4166638;28;20029;-67
2022/01/21 01:05:26;;;;;;;17.52;5.63;;;4.30;99.90;;;3.65;95.54;103349.53;4168018;28;20021;-67
2022/01/21 01:07:27;;;;;;;13.32;4.97;;;4.30;99.90;;;3.86;94.13;103339.25;4166942;28;20030;-67
2022/01/21 01:09:28;;;;;;;7.10;3.70;;;4.30;99.90;;;3.69;94.65;103345.91;4166994;28;20515;-67
2022/01/21 01:20:30;;;;;;;11.30;4.75;;;4.20;99.90;;;4.00;94.31;103345.81;4168247;28;20128;-67
2022/01/21 01:29:06;;;;;;;14.23;4.72;;;4.10;99.90;;;3.59;95.50;103339.28;4167957;28;20043;-67
2022/01/21 01:31:07;;;;;;;9.95;5.22;;;4.10;99.90;;;3.64;94.89;103340.88;4167765;28;20053;-67
2022/01/21 01:33:10;;;;;;;13.23;5.82;;;4.00;99.90;;;3.64;94.55;103345.22;4166740;28;20468;-67
2022/01/21 01:35:14;;;;;;;14.30;4.70;;;4.00;99.90;;;3.49;96.03;103343.09;4166762;28;20071;-67
2022/01/21 01:37:31;;;;;;;10.82;4.85;;;4.00;99.90;;;3.51;94.54;103341.28;4166467;28;20022;-67
2022/01/21 01:39:40;;;;;;;12.07;4.32;;;3.90;99.90;;;3.30;97.20;103333.22;4166690;28;20108;-67
2022/01/21 01:41:56;;;;;;;10.52;4.90;;;3.80;99.90;;;3.40;97.35;103340.75;4167856;28;20500;-67
2022/01/21 01:50:59;;;;;;;12.20;4.43;;;3.60;99.90;;;3.21;98.58;103343.06;4166813;28;20049;-67
2022/01/21 01:53:01;;;;;;;9.38;4.25;;;3.60;99.90;;;3.03;98.22;103344.44;4150137;28;20544;-67
2022/01/21 01:55:02;;;;;;;10.00;4.18;;;3.60;99.90;;;2.99;99.55;103342.81;4166386;28;20528;-67
2022/01/21 01:57:04;;;;;;;9.82;3.60;;;3.50;99.90;;;3.08;98.29;103339.09;4167251;28;20022;-67
2022/01/21 01:59:05;;;;;;;10.27;4.05;;;3.50;99.90;;;3.11;99.21;103352.91;4199231;28;20036;-67
2022/01/21 02:01:07;;;;;;;10.20;4.55;;;3.50;99.90;;;3.17;98.78;103360.53;4167252;28;20374;-67
2022/01/21 02:03:13;;;;;;;9.82;4.18;;;3.40;99.90;;;3.13;97.90;103358.94;4165772;28;20030;-67
2022/01/21 02:05:14;;;;;;;8.95;4.07;;;3.40;99.90;;;2.96;98.13;103357.69;4166290;28;20025;-67
2022/01/21 02:07:15;;;;;;;14.75;5.03;;;3.40;99.90;;;2.98;98.35;103356.78;4182524;28;20543;-67
2022/01/21 02:09:17;;;;;;;13.70;5.35;;;3.30;99.90;;;3.01;97.02;103364.50;4166195;28;20061;-67
2022/01/21 02:11:18;;;;;;;9.82;5.43;;;3.30;99.90;;;2.73;97.58;103368.75;4149769;28;20073;-67
2022/01/21 02:13:23;;;;;;;13.05;4.70;;;3.20;99.90;;;2.76;98.67;103376.50;4167289;28;20048;-67
2022/01/21 02:15:25;;;;;;;11.55;3.60;;;3.20;99.90;;;2.89;97.37;103372.66;4165824;28;20123;-67
2022/01/21 02:21:55;;;;;;;;;;;3.10;99.90;;;2.68;98.39;103370.66;4156231;28;20067;-67
2022/01/21 02:24:01;;;;;;;6.22;3.03;;;3.10;99.90;;;2.78;97.83;103364.25;4166109;28;19909;-67
2022/01/21 02:26:02;;;;;;;8.40;3.22;;;3.10;99.90;;;2.61;98.30;103362.13;4167130;28;20030;-67
2022/01/21 02:28:03;;;;;;;6.55;3.58;;;3.10;99.90;;;2.55;99.68;103361.44;4167336;28;20500;-67
2022/01/21 02:30:07;;;;;;;9.30;3.42;;;3.00;99.90;;;2.54;99.68;103372.78;4166011;28;20026;-67
2022/01/21 02:32:08;;;;;;;8.45;3.78;;;2.90;99.90;;;2.31;100.00;103359.47;4165837;28;20021;-67
2022/01/21 02:34:09;;;;;;;10.40;4.10;;;2.90;99.90;;;2.42;100.00;103354.84;4182722;28;20036;-67
2022/01/21 02:36:10;;;;;;;8.45;3.72;;;2.80;99.90;;;2.52;99.50;103351.94;4152740;28;20044;-67
2022/01/21 02:38:11;;;;;;;6.97;3.10;;;2.80;99.90;;;2.48;99.60;103350.31;4166119;28;20025;-67
2022/01/21 02:40:14;;;;;;;5.68;3.00;;;2.80;99.90;;;2.25;100.00;103352.66;4166138;28;20029;-67
2022/01/21 02:42:16;;;;;;;6.65;3.40;;;2.70;99.90;;;2.21;100.00;103351.06;4167253;28;20033;-67
2022/01/21 02:44:18;;;;;;;8.55;3.55;;;2.70;99.90;;;2.26;100.00;103354.38;4182427;28;20036;-67
2022/01/21 02:46:22;;;;;;;8.93;3.83;;;2.70;99.90;;;2.20;100.00;103350.19;4165702;28;20037;-67
2022/01/21 02:48:23;;;;;;;7.47;3.58;;;2.60;99.90;;;2.16;100.00;103347.69;4167279;28;20163;-67
2022/01/21 02:50:24;;;;;;;11.40;3.60;;;2.60;99.90;;;2.13;100.00;103352.97;4198918;28;20028;-67
2022/01/21 02:52:29;;;;;;;7.97;3.58;;;2.60;99.90;;;2.43;100.00;103351.34;4167387;28;20064;-67
2022/01/21 02:54:34;;;;;;;9.10;3.45;;;2.60;99.90;;;2.40;100.00;103341.00;4165977;28;20032;-67
2022/01/21 02:56:38;;;;;;;9.80;3.90;;;2.70;99.90;;;2.49;100.00;103343.34;4165906;28;20025;-67
2022/01/21 02:58:39;;;;;;;8.52;3.92;;;2.70;99.90;;;2.37;99.21;103341.94;4166043;28;20033;-67
2022/01/21 03:00:40;;;;;;;11.35;3.85;;;2.70;99.90;;;2.39;100.00;103352.31;4165712;28;20026;-67
2022/01/21 03:02:41;;;;;;;7.93;3.35;;;2.70;99.90;;;2.28;100.00;103349.13;4167303;28;20037;-67
2022/01/21 03:05:00;;;;;;;10.52;3.90;;;2.70;99.90;;;2.29;100.00;103338.69;4166005;28;20037;-67
2022/01/21 03:07:02;;;;;;;7.95;3.92;;;2.60;99.90;;;2.20;100.00;103338.91;4154122;28;20033;-67
2022/01/21 03:09:07;;;;;;;6.38;3.50;;;2.60;99.90;;;2.29;100.00;103340.44;4198803;28;20027;-67
2022/01/21 03:11:09;;;;;;;7.13;2.97;;;2.60;99.90;;;2.26;100.00;103345.72;4182335;28;20033;-67
2022/01/21 03:13:10;;;;;;;5.30;3.08;;;2.60;99.90;;;2.15;100.00;103346.00;4182352;28;20025;-67
2022/01/21 03:15:10;;;;;;;6.13;3.45;;;2.60;99.90;;;2.05;100.00;103345.38;4183909;28;20067;-67
2022/01/21 03:17:11;;;;;;;9.27;3.67;;;2.60;99.90;;;2.04;100.00;103346.25;4169761;28;20112;-67
2022/01/21 03:19:12;;;;;;;8.85;3.80;;;2.50;99.90;;;2.07;100.00;103351.38;4183784;28;20021;-67
2022/01/21 03:21:16;;;;;;;13.35;4.47;;;2.50;99.90;;;2.03;100.00;103352.34;4168919;28;20030;-67
2022/01/21 03:23:19;;;;;;;7.13;3.35;;;2.50;99.90;;;2.08;100.00;103341.81;4156020;28;20026;-67
2022/01/21 03:25:20;;;;;;;11.45;3.92;;;2.50;99.90;;;2.10;100.00;103350.44;4160681;28;20017;-67
2022/01/21 03:27:21;;;;;;;11.07;3.72;;;2.50;99.90;;;2.13;100.00;103356.44;4168697;28;20551;-67
2022/01/21 03:29:22;;;;;;;10.18;3.40;;;2.50;99.90;;;2.11;100.00;103355.63;4169865;28;20052;-67
2022/01/21 03:31:24;;;;;;;11.18;3.60;;;2.50;99.90;;;2.17;100.00;103354.63;4168468;28;20084;-67
2022/01/21 03:33:25;;;;;;;10.75;3.60;;;2.50;99.90;;;2.24;100.00;103357.00;4168753;28;20033;-67
2022/01/21 03:35:26;;;;;;;9.23;4.22;;;2.50;99.90;;;2.20;100.00;103349.34;4168456;28;20030;-67
2022/01/21 03:37:27;;;;;;;7.20;3.03;;;2.50;99.90;;;2.11;100.00;103355.63;4169657;28;20037;-67
2022/01/21 03:39:28;;;;;;;7.18;3.67;;;2.50;99.90;;;2.21;100.00;103354.47;4201547;28;20028;-67
2022/01/21 03:41:29;;;;;;;11.07;4.10;;;2.50;99.90;;;2.29;100.00;103354.31;4169806;28;20029;-67
2022/01/21 03:43:31;;;;;;;10.98;4.82;;;2.50;99.90;;;2.30;100.00;103349.97;4201655;28;20052;-67
2022/01/21 03:45:32;;;;;;;12.88;3.85;;;2.60;99.90;;;2.44;99.83;103353.06;4201023;28;20021;-67
2022/01/21 03:47:33;;;;;;;10.60;3.53;;;2.60;99.90;;;2.39;99.41;103354.94;4201437;28;20055;-67
2022/01/21 03:49:40;;;;;;;7.75;3.75;;;2.70;99.90;;;2.45;99.89;103349.56;4168433;28;20029;-67
2022/01/21 03:51:40;;;;;;;10.68;3.95;;;2.70;99.90;;;2.53;99.58;103352.81;4168418;28;20112;-68
2022/01/21 03:53:41;;;;;;;13.43;3.20;;;2.80;99.90;;;2.50;99.76;103350.28;4151865;28;20141;-68
2022/01/21 03:55:43;;;;;;;7.65;3.38;;;2.80;99.90;;;2.51;99.76;103347.63;4168107;28;20057;-67
2022/01/21 03:57:44;;;;;;;10.98;3.92;;;2.70;99.90;;;2.45;98.98;103342.56;4168288;28;20030;-67
2022/01/21 03:59:44;;;;;;;10.65;4.00;;;2.80;99.90;;;2.44;100.00;103353.91;4151787;28;20036;-67
2022/01/21 04:01:45;;;;;;;10.50;3.33;;;2.80;99.90;;;2.37;100.00;103351.50;4167945;28;20026;-67
2022/01/21 04:03:46;;;;;;;9.07;3.72;;;2.80;99.90;;;2.43;100.00;103353.94;4184738;28;20424;-67
2022/01/21 04:05:48;;;;;;;9.60;3.70;;;2.80;99.90;;;2.55;99.08;103349.25;4167957;28;20032;-67
2022/01/21 04:07:49;;;;;;;11.13;3.40;;;2.80;99.90;;;2.44;100.00;103353.91;4169491;28;20405;-67
2022/01/21 04:09:49;;;;;;;6.82;3.47;;;2.80;99.90;;;2.37;100.00;103360.16;4168010;28;20025;-67
2022/01/21 04:11:51;;;;;;;10.60;3.83;;;2.80;99.90;;;2.35;100.00;103353.28;4169422;28;20029;-67
2022/01/21 04:13:54;;;;;;;9.95;2.80;;;2.80;99.90;;;2.38;99.97;103353.22;4201233;28;20032;-67
2022/01/21 04:15:58;;;;;;;5.53;2.78;;;2.70;99.90;;;2.41;100.00;103347.91;4167277;28;20041;-67
2022/01/21 04:17:58;;;;;;;10.87;3.17;;;2.70;99.90;;;2.37;99.73;103356.69;4168037;28;20025;-67
2022/01/21 04:19:59;;;;;;;6.57;3.00;;;2.70;99.90;;;2.39;100.00;103352.31;4167832;28;20045;-67
2022/01/21 04:22:00;;;;;;;11.82;3.55;;;2.70;99.90;;;2.48;100.00;103359.91;4184488;28;20025;-67
2022/01/21 04:24:03;;;;;;;6.47;3.45;;;2.70;99.90;;;2.54;99.53;103355.34;4168050;28;20103;-67
2022/01/21 04:26:04;;;;;;;9.98;2.85;;;2.80;99.90;;;2.44;100.00;103355.66;4183415;28;20021;-67
2022/01/21 04:28:05;;;;;;;9.02;3.40;;;2.80;99.90;;;2.39;100.00;103365.34;4184167;28;20071;-67
2022/01/21 04:30:09;;;;;;;8.65;2.95;;;2.80;99.90;;;2.44;100.00;103358.25;4167891;28;20021;-67
2022/01/21 04:32:10;;;;;;;7.47;2.88;;;2.80;99.90;;;2.40;99.43;103364.44;4167578;28;20093;-67
2022/01/21 04:34:11;;;;;;;8.63;3.28;;;2.80;99.90;;;2.34;100.00;103365.44;4169077;28;20026;-67
2022/01/21 04:36:12;;;;;;;7.68;2.70;;;2.70;99.90;;;2.34;100.00;103360.25;4200480;28;20070;-67
2022/01/21 04:38:16;;;;;;;8.00;4.55;;;2.70;99.90;;;2.32;99.88;103361.19;4151284;28;20042;-67
2022/01/21 04:40:19;;;;;;;7.35;3.58;;;2.70;99.90;;;2.21;100.00;103359.69;4183826;28;20051;-67
2022/01/21 04:49:00;;;;;;;12.05;3.53;;;2.80;99.90;;;2.68;98.29;103374.09;4168823;28;20071;-67
2022/01/21 04:51:21;;;;;;;9.32;2.90;;;2.80;99.90;;;2.58;97.00;103371.78;4167048;28;20029;-67
2022/01/21 04:53:24;;;;;;;12.15;3.55;;;2.80;99.90;;;2.50;97.43;103360.72;4195584;28;20028;-67
2022/01/21 04:55:25;;;;;;;8.38;3.03;;;2.90;99.90;;;2.43;99.51;103372.16;4168411;28;20052;-67
2022/01/21 04:57:26;;;;;;;9.50;3.30;;;2.80;99.90;;;2.31;100.00;103373.34;4168531;28;20033;-67
2022/01/21 04:59:28;;;;;;;10.05;3.92;;;2.80;99.90;;;2.43;98.68;103369.56;4167422;28;20124;-67
2022/01/21 05:01:28;;;;;;;7.47;3.47;;;2.80;99.90;;;2.49;98.56;103377.22;4166971;28;20029;-67
2022/01/21 05:03:30;;;;;;;12.70;3.47;;;2.80;99.90;;;2.42;100.00;103378.31;4167237;28;20499;-67
2022/01/21 05:05:32;;;;;;;11.85;2.90;;;2.80;99.90;;;2.53;99.14;103373.66;4200072;28;20029;-67
2022/01/21 05:07:36;;;;;;;11.65;4.05;;;2.80;99.90;;;2.43;99.27;103364.34;4168516;28;20026;-67
2022/01/21 05:09:37;;;;;;;15.00;3.55;;;2.80;99.90;;;2.48;100.00;103370.31;4168379;28;20029;-67
2022/01/21 05:11:38;;;;;;;9.13;3.00;;;2.80;99.90;;;2.32;100.00;103372.47;4183363;28;20040;-67
2022/01/21 05:13:44;;;;;;;8.77;3.47;;;2.80;99.90;;;2.28;100.00;103369.94;4183485;28;20037;-67
2022/01/21 05:17:49;;;;;;;8.57;2.50;;;2.70;99.90;;;2.50;99.42;103371.13;4199590;28;20111;-67
2022/01/21 05:19:52;;;;;;;4.68;2.70;;;2.70;99.90;;;2.28;100.00;103370.81;4199848;28;20032;-67
2022/01/21 05:21:53;;;;;;;11.50;3.08;;;2.70;99.90;;;2.26;100.00;103374.34;4199667;28;20024;-67
2022/01/21 05:23:54;;;;;;;9.02;3.58;;;2.70;99.90;;;2.26;100.00;103379.56;4168205;28;20488;-67
2022/01/21 05:25:55;;;;;;;10.77;3.58;;;2.60;99.90;;;2.03;100.00;103372.34;4166595;28;20064;-67
2022/01/21 05:27:58;;;;;;;8.50;3.53;;;2.60;99.90;;;2.05;100.00;103376.59;4182196;28;20507;-67
2022/01/21 05:29:59;;;;;;;12.75;5.07;;;2.50;99.90;;;2.06;100.00;103378.28;4166828;28;20029;-67
2022/01/21 05:32:03;;;;;;;10.15;4.07;;;2.50;99.90;;;2.12;100.00;103380.75;4183015;28;20029;-67
2022/01/21 05:34:04;;;;;;;11.20;3.88;;;2.50;99.90;;;2.00;100.00;103383.66;4183174;28;20039;-67
2022/01/21 05:36:05;;;;;;;8.10;2.97;;;2.50;99.90;;;1.93;100.00;103387.31;4167638;28;20057;-67
2022/01/21 05:38:06;;;;;;;11.68;3.97;;;2.40;99.90;;;1.85;100.00;103376.19;4167137;28;20104;-67
2022/01/21 05:40:14;;;;;;;10.38;3.17;;;2.40;99.90;;;1.98;100.00;103393.25;4167955;28;20049;-67
2022/01/21 05:42:15;;;;;;;7.80;3.50;;;2.30;99.90;;;1.92;100.00;103396.00;4166586;28;20119;-67
2022/01/21 05:47:14;;;;;;;6.70;3.13;;;2.30;99.90;;;1.96;100.00;103383.78;4167401;28;20101;-67
2022/01/21 05:48:50;;;;;;;5.78;3.10;;;2.30;99.90;;;1.94;100.00;103386.41;4170460;28;20044;-67
2022/01/21 05:50:51;;;;;;;10.60;3.70;;;2.30;99.90;;;1.87;100.00;103381.38;4166683;28;20026;-67
2022/01/21 05:52:54;;;;;;;9.93;3.47;;;2.30;99.90;;;1.83;100.00;103395.34;4166651;28;20512;-67
2022/01/21 05:54:55;;;;;;;8.75;2.97;;;2.20;99.90;;;1.72;100.00;103385.19;4166649;28;20025;-67
2022/01/21 05:56:57;;;;;;;8.40;3.38;;;2.20;99.90;;;1.82;100.00;103383.25;4167379;28;20717;-67
2022/01/21 05:59:00;;;;;;;12.68;3.83;;;2.20;99.90;;;1.70;100.00;103389.59;4182917;28;20021;-67
2022/01/21 06:01:01;;;;;;;9.35;3.50;;;2.20;99.90;;;1.62;100.00;103387.16;4167442;28;20025;-67
2022/01/21 06:03:04;;;;;;;5.68;3.15;;;2.10;99.90;;;1.68;100.00;103393.94;4167682;28;20025;-67
2022/01/21 06:05:06;;;;;;;8.93;3.08;;;2.10;99.90;;;1.66;100.00;103398.34;4167631;28;20515;-67
2022/01/21 06:07:07;;;;;;;4.53;2.70;;;2.10;99.90;;;1.63;100.00;103399.28;4166048;28;20076;-67
2022/01/21 06:09:08;;;;;;;11.35;3.58;;;2.00;99.90;;;1.56;100.00;103399.41;4166605;28;20111;-67
2022/01/21 06:11:09;;;;;;;11.55;3.20;;;2.00;99.90;;;1.39;100.00;103394.59;4166300;28;20098;-67
2022/01/21 06:13:15;;;;;;;7.97;3.35;;;1.90;99.90;;;1.51;100.00;103403.88;4167633;28;20091;-67
2022/01/21 06:15:16;;;;;;;9.75;2.97;;;1.90;99.90;;;1.49;99.10;103393.50;4167151;28;20393;-67
2022/01/21 06:17:17;;;;;;;8.40;3.20;;;1.90;99.90;;;1.59;98.41;103409.75;4167349;28;20185;-67
2022/01/21 06:19:18;;;;;;;9.27;3.20;;;1.90;99.90;;;1.40;99.26;103413.66;4167466;28;20029;-67
2022/01/21 06:21:19;;;;;;;5.03;2.83;;;1.80;99.90;;;1.33;100.00;103422.47;4166034;28;20060;-67
2022/01/21 06:23:20;;;;;;;7.07;3.13;;;1.70;99.90;;;1.27;100.00;103414.78;4167362;28;20049;-67
2022/01/21 06:25:21;;;;;;;7.95;3.53;;;1.70;99.90;;;1.23;100.00;103415.72;4166080;28;20108;-67
2022/01/21 06:27:26;;;;;;;5.90;2.50;;;1.70;99.90;;;1.20;100.00;103418.38;4165982;28;20489;-67
2022/01/21 06:29:27;;;;;;;4.72;2.67;;;1.60;99.90;;;1.21;100.00;103425.31;4198353;28;20035;-67
2022/01/21 06:31:28;;;;;;;9.32;2.97;;;1.60;99.90;;;1.21;100.00;103422.72;4181903;28;20031;-67
2022/01/21 06:33:29;;;;;;;8.02;3.95;;;1.60;99.90;;;1.16;100.00;103421.97;4167252;28;20033;-67
2022/01/21 06:35:30;;;;;;;7.18;3.00;;;1.60;99.90;;;1.09;100.00;103423.81;4165952;28;20033;-67
2022/01/21 06:37:31;;;;;;;7.93;3.30;;;1.60;99.90;;;1.22;100.00;103432.25;4165803;28;20480;-67
2022/01/21 06:39:32;;;;;;;9.60;3.78;;;1.60;99.90;;;1.28;100.00;103435.56;4166001;28;20021;-67
2022/01/21 06:41:33;;;;;;;9.40;3.67;;;1.60;99.90;;;0.94;100.00;103437.97;4167071;28;20044;-67
2022/01/21 06:43:34;;;;;;;6.45;3.20;;;1.60;99.90;;;1.11;100.00;103438.50;4165914;28;20440;-67
2022/01/21 06:45:35;;;;;;;9.07;2.92;;;1.60;99.90;;;1.07;100.00;103441.19;4181967;28;20040;-67
2022/01/21 06:47:36;;;;;;;8.07;4.20;;;1.50;99.90;;;1.10;100.00;103439.41;4165547;28;20037;-67
2022/01/21 06:49:37;;;;;;;6.70;3.63;;;1.60;99.90;;;1.21;100.00;103452.19;4169951;28;20436;-67
2022/01/21 06:51:38;;;;;;;12.02;4.40;;;1.60;99.90;;;1.38;100.00;103451.81;4170122;28;20025;-67
2022/01/21 06:53:39;;;;;;;10.52;4.57;;;1.60;99.90;;;1.38;100.00;103459.63;4171292;28;20028;-67
2022/01/21 06:55:40;;;;;;;10.68;4.20;;;1.70;99.90;;;1.36;100.00;103457.06;4187139;28;20029;-67
2022/01/21 06:57:41;;;;;;;12.25;4.45;;;1.70;99.90;;;1.40;100.00;103448.34;4170216;28;20084;-67
2022/01/21 06:59:42;;;;;;;10.65;5.43;;;1.80;99.90;;;1.31;100.00;103456.31;4169151;28;20025;-67
2022/01/21 07:01:43;;;;;;;11.32;5.55;;;1.80;99.90;;;1.36;100.00;103457.06;4168758;28;20018;-67
2022/01/21 07:03:44;;;;;;;8.25;4.20;;;1.80;99.90;;;1.39;100.00;103461.34;4170362;28;20484;-67
2022/01/21 07:05:46;;;;;;;11.80;4.35;;;1.80;99.90;;;1.41;100.00;103460.44;4168762;28;20558;-67
2022/01/21 07:07:48;;;;;;;10.23;4.82;;;1.80;99.90;;;1.41;100.00;103468.22;4168935;28;20404;-67
2022/01/21 07:09:49;;;;;;;10.88;4.88;;;1.80;99.90;;;1.36;100.00;103467.47;4185377;28;20108;-67
2022/01/21 07:11:50;;;;;;;10.60;4.57;;;1.70;99.90;;;1.31;100.00;103463.25;4168932;28;20456;-68
2022/01/21 07:13:51;;;;;;;11.68;4.88;;;1.70;99.90;;;1.37;100.00;103468.34;4168882;28;20385;-67
2022/01/21 07:15:52;;;;;;;10.43;4.35;;;1.70;99.90;;;1.36;100.00;103458.81;4184682;28;20122;-67
2022/01/21 07:17:53;;;;;;;11.18;4.32;;;1.70;99.90;;;1.18;100.00;103467.84;4169798;28;20033;-67
2022/01/21 07:19:54;;;;;;;10.82;5.40;;;1.70;99.90;;;1.33;100.00;103477.06;4169782;28;20109;-67
2022/01/21 07:21:56;;;;;;;9.52;4.10;;;1.70;99.90;;;1.40;100.00;103483.88;4168468;28;20048;-67
2022/01/21 07:23:57;;;;;;;9.13;4.60;;;1.70;99.90;;;1.26;100.00;103478.06;4169951;28;20022;-67
2022/01/21 07:25:57;;;;;;;9.10;4.50;;;1.70;99.90;;;1.16;100.00;103485.22;4168375;28;20032;-67
2022/01/21 07:27:58;;;;;;;10.13;4.13;;;1.60;99.90;;;1.07;100.00;103474.97;4184122;28;20428;-67
2022/01/21 07:30:01;;;;;;;7.00;4.13;;;1.60;99.90;;;1.16;100.00;103490.41;4168549;28;20041;-67
2022/01/21 07:32:03;;;;;;;7.15;3.55;;;1.60;99.90;;;1.05;100.00;103492.31;4168121;28;20025;-67
2022/01/21 07:34:06;;;;;;;8.40;5.38;;;1.60;99.90;;;0.94;100.00;103496.88;4184315;28;20055;-68
2022/01/21 07:36:07;;;;;;;11.55;3.75;;;1.50;99.90;;;1.21;100.00;103503.31;4168078;28;20029;-67
2022/01/21 07:38:08;;;;;;;8.93;4.85;;;1.50;99.90;;;1.24;100.00;103505.84;4184169;28;20029;-67
2022/01/21 07:40:10;;;;;;;12.07;4.55;;;1.60;99.90;;;1.10;100.00;103498.31;4169702;28;20041;-67
2022/01/21 07:42:11;;;;;;;9.48;4.20;;;1.60;99.90;;;1.14;100.00;103505.16;4169559;28;20040;-68
2022/01/21 07:44:12;;;;;;;12.75;3.88;;;1.60;99.90;;;1.00;100.00;103504.56;4169417;28;20710;-68
2022/01/21 07:46:13;;;;;;;10.10;3.85;;;1.50;99.90;;;0.95;100.00;103509.00;4167632;28;20025;-68
2022/01/21 07:48:14;;;;;;;7.15;3.58;;;1.50;99.90;;;1.09;100.00;103525.19;4184541;28;20083;-68
2022/01/21 07:50:16;;;;;;;10.63;4.00;;;1.50;99.90;;;1.24;100.00;103509.31;4169118;28;20052;-68
2022/01/21 07:52:17;;;;;;;8.02;3.60;;;1.60;99.90;;;1.25;100.00;103520.56;4167689;28;20036;-68
2022/01/21 07:54:18;;;;;;;11.40;3.95;;;1.60;99.90;;;1.11;100.00;103515.59;4167895;28;20025;-68
2022/01/21 07:56:19;;;;;;;16.88;3.83;;;1.60;99.90;;;1.27;100.00;103519.66;4167893;28;20037;-68
2022/01/21 07:58:21;;;;;;;9.80;3.58;;;1.60;99.90;;;1.11;100.00;103519.06;4184426;28;20017;-68
2022/01/21 08:00:22;;;;;;;9.30;4.20;;;1.70;99.90;;;1.08;100.00;103521.72;4168021;28;20029;-68
2022/01/21 08:02:24;;;;;;;10.50;4.28;;;1.60;99.90;;;1.29;100.00;103522.22;4167921;28;20044;-68
2022/01/21 08:04:25;;;;;;;8.60;4.18;;;1.60;99.90;;;1.27;100.00;103524.00;4169181;28;20029;-68
2022/01/21 08:06:27;;;;;;;14.90;3.75;;;1.70;99.90;;;1.31;100.00;103531.72;4169049;28;20044;-68
2022/01/21 08:08:28;;;;;;;8.45;3.50;;;1.70;99.90;;;1.47;100.00;103540.06;4167802;28;20048;-68
2022/01/21 08:10:31;;;;;;;11.77;4.00;;;1.80;99.90;;;1.42;100.00;103528.91;4169087;28;20037;-68
2022/01/21 08:12:32;;;;;;;7.78;3.15;;;1.80;99.90;;;1.38;100.00;103533.31;4167947;28;20136;-68
2022/01/21 08:14:33;;;;;;;13.38;3.78;;;1.80;99.90;;;1.48;100.00;103529.66;4167700;28;20487;-69
2022/01/21 08:16:36;;;;;;;8.55;4.72;;;1.80;99.90;;;1.52;100.00;103535.66;4167083;28;20069;-68
2022/01/21 08:18:37;;;;;;;6.75;3.85;;;1.90;99.90;;;1.73;100.00;103534.38;4168887;28;20116;-69
2022/01/21 08:20:38;;;;;;;8.90;4.22;;;2.00;99.90;;;1.74;100.00;103536.06;4168922;28;20080;-68
2022/01/21 08:22:39;;;;;;;8.48;3.97;;;2.10;99.90;;;1.85;100.00;103534.13;4183945;28;20630;-68
2022/01/21 08:24:40;;;;;;;7.97;4.20;;;2.20;99.90;;;1.97;100.00;103532.09;4200735;28;20021;-68
2022/01/21 08:26:41;;;;;;;10.68;3.45;;;2.30;99.90;;;1.99;100.00;103532.06;4183816;28;20064;-68
2022/01/21 08:28:42;;;;;;;10.27;3.78;;;2.30;99.90;;;2.10;100.00;103530.94;4168794;28;20072;-68
2022/01/21 08:30:43;;;;;;;11.68;4.45;;;2.40;99.90;;;2.14;100.00;103530.00;4167418;28;20025;-69
2022/01/21 08:32:44;;;;;;;10.13;3.60;;;2.50;99.90;;;2.26;100.00;103530.59;4167304;28;20033;-70
2022/01/21 08:34:45;;;;;;;13.70;5.15;;;2.50;99.90;;;2.30;100.00;103534.88;4183788;28;20033;-69
2022/01/21 08:36:48;;;;;;;11.20;4.07;;;2.60;99.90;;;2.33;100.00;103529.59;4168402;28;20108;-66
2022/01/21 08:38:50;;;;;;;12.07;4.57;;;2.60;99.90;;;2.14;100.00;103537.81;4162402;28;20029;-66
2022/01/21 08:40:52;;;;;;;12.75;4.07;;;2.70;99.90;;;2.20;100.00;103527.25;4168480;28;20021;-66
2022/01/21 08:42:53;;;;;;;10.93;3.55;;;2.70;99.90;;;2.25;100.00;103529.75;4168438;28;20572;-68
2022/01/21 08:44:53;;;;;;;12.70;4.88;;;2.70;99.90;;;2.43;100.00;103523.25;4168560;28;20029;-69
2022/01/21 08:46:54;;;;;;;9.18;3.85;;;2.80;99.90;;;2.49;100.00;103528.31;4183291;28;20087;-69
2022/01/21 08:48:55;;;;;;;14.80;3.78;;;2.90;99.90;;;2.55;100.00;103528.19;4168345;28;20029;-69
2022/01/21 08:50:58;;;;;;;8.20;3.72;;;2.90;99.90;;;2.54;100.00;103534.31;4200102;28;20440;-69
2022/01/21 08:53:09;;;;;;;12.38;4.30;;;3.00;99.90;;;2.40;100.00;103536.34;4160534;28;20077;-69
2022/01/21 08:55:17;;;;;;;12.60;4.00;;;3.00;99.90;;;2.68;100.00;103550.47;4167214;28;20029;-73
2022/01/21 08:57:19;;;;;;;11.27;4.50;;;3.10;99.90;;;2.60;100.00;103536.72;4167063;28;20034;-73
2022/01/21 08:59:21;;;;;;;11.50;3.97;;;3.10;99.90;;;2.59;100.00;103542.84;4166122;28;20451;-72
2022/01/21 09:01:21;;;;;;;8.48;4.43;;;3.20;99.90;;;2.73;100.00;103538.16;4194955;28;20035;-73
2022/01/21 09:03:23;;;;;;;10.15;3.67;;;3.20;99.90;;;2.63;100.00;103531.44;4166714;28;20033;-72
2022/01/21 09:05:23;;;;;;;10.15;4.38;;;3.20;99.90;;;2.64;100.00;103539.25;4168071;28;20108;-73
2022/01/21 09:07:24;;;;;;;9.65;4.75;;;3.20;99.90;;;2.77;100.00;103534.59;4166467;28;20249;-73
2022/01/21 09:09:25;;;;;;;12.02;4.05;;;3.30;99.90;;;3.01;100.00;103544.41;4199951;28;20060;-73
2022/01/21 09:11:27;;;;;;;11.27;4.78;;;3.40;99.90;;;3.12;99.12;103546.72;4167875;28;20060;-73
2022/01/21 09:13:30;;;;;;;13.60;4.22;;;3.50;99.90;;;2.99;99.55;103534.88;4149977;28;20038;-72
2022/01/21 09:15:33;;;;;;;13.70;4.28;;;3.50;99.90;;;3.03;99.91;103537.41;4164528;28;20049;-72
2022/01/21 09:17:36;;;;;;;10.38;4.38;;;3.60;99.90;;;2.99;99.95;103540.09;4091851;28;20085;-71
2022/01/21 09:19:37;;;;;;;7.25;4.57;;;3.60;99.90;;;3.07;100.00;103549.47;4145029;28;20037;-73